Time;durP1;ratioP1;P1;durP2;ratioP2;P2;SDS_P1;SDS_P2;PMS_P1;PMS_P2;Temp;Humidity;BMP_temperature;BMP_pressure;BME280_temperature;BME280_humidity;BME280_pressure;Samples;Min_cycle;Max_cycle;Signal;HPM_P1;HPM_P2
2023/08/22 00:00:07;;;;;;;23.13;16.33;;;;;;;21.28;69.69;97891.66;10324806;28;20448;-55
2023/08/22 00:05:07;;;;;;;17.80;14.73;;;;;;;21.37;70.75;97910.69;10325217;28;20052;-55
2023/08/22 00:10:07;;;;;;;17.92;13.73;;;;;;;21.30;70.97;97923.28;10326626;28;20064;-55
2023/08/22 00:15:09;;;;;;;17.67;14.27;;;;;;;21.14;70.98;97923.03;10330950;28;20455;-55
2023/08/22 00:20:13;;;;;;;20.25;14.68;;;;;;;21.17;70.87;97912.34;10332379;28;20056;-55
2023/08/22 00:25:12;;;;;;;16.05;14.02;;;;;;;21.13;71.46;97924.81;10330065;28;20057;-55
2023/08/22 00:30:11;;;;;;;18.00;14.20;;;;;;;21.01;71.64;97914.78;10331851;28;20021;-55
2023/08/22 00:35:10;;;;;;;16.15;14.35;;;;;;;20.90;71.88;97906.44;10331869;28;20524;-55
2023/08/22 00:40:09;;;;;;;17.63;14.70;;;;;;;20.71;71.98;97883.41;10332078;28;20544;-55
2023/08/22 00:45:09;;;;;;;19.10;13.85;;;;;;;20.73;72.39;97886.00;10331060;28;20077;-55
2023/08/22 00:50:09;;;;;;;16.05;14.35;;;;;;;20.90;72.77;97916.97;10331027;28;20072;-55
2023/08/22 00:55:08;;;;;;;19.20;15.25;;;;;;;20.67;73.32;97889.72;10331308;28;20116;-55
2023/08/22 01:00:10;;;;;;;18.17;15.00;;;;;;;20.66;73.84;97903.84;10330671;28;20057;-55
2023/08/22 01:05:10;;;;;;;17.95;15.35;;;;;;;20.64;74.31;97905.69;10330554;28;20076;-55
2023/08/22 01:10:13;;;;;;;17.08;14.93;;;;;;;20.64;74.57;97918.88;10330540;28;20061;-55
2023/08/22 01:15:34;;;;;;;19.65;15.50;;;;;;;20.34;74.82;97876.06;10328439;28;20144;-55
2023/08/22 01:20:34;;;;;;;17.85;14.98;;;;;;;20.56;75.20;97928.84;10328483;28;20486;-55
2023/08/22 01:25:34;;;;;;;17.48;15.57;;;;;;;20.27;75.86;97901.78;10328510;28;20207;-55
2023/08/22 01:30:42;;;;;;;21.85;16.23;;;;;;;20.27;76.79;97933.41;10329887;28;20060;-55
2023/08/22 01:35:46;;;;;;;17.30;15.48;;;;;;;20.28;76.27;97929.00;10329506;28;20059;-55
2023/08/22 01:40:45;;;;;;;18.27;16.38;;;;;;;20.24;76.51;97938.81;10329057;28;20132;-55
2023/08/22 01:45:45;;;;;;;18.48;15.38;;;;;;;20.23;76.46;97931.78;10327995;28;20061;-55
2023/08/22 01:50:44;;;;;;;18.52;15.85;;;;;;;20.19;76.13;97939.88;10329192;28;20105;-55
2023/08/22 01:55:42;;;;;;;18.58;16.38;;;;;;;19.99;76.37;97914.28;10327878;28;20025;-55
2023/08/22 02:00:41;;;;;;;19.00;16.02;;;;;;;20.08;76.80;97933.22;10327953;28;20032;-55
2023/08/22 02:05:40;;;;;;;17.83;16.02;;;;;;;20.14;76.65;97936.56;10325665;28;20130;-55
2023/08/22 02:10:39;;;;;;;18.30;16.40;;;;;;;20.12;76.95;97938.38;10327609;28;20029;-55
2023/08/22 02:15:38;;;;;;;19.25;17.17;;;;;;;20.06;77.23;97929.78;10327875;28;20404;-55
2023/08/22 02:20:37;;;;;;;20.58;17.25;;;;;;;20.07;77.46;97935.91;10327433;28;20524;-55
2023/08/22 02:25:36;;;;;;;20.08;17.05;;;;;;;20.01;77.93;97936.16;10327204;28;20473;-55
2023/08/22 02:30:35;;;;;;;24.88;18.02;;;;;;;19.96;77.94;97941.59;10327574;28;20473;-55
2023/08/22 02:35:34;;;;;;;21.45;16.52;;;;;;;19.91;78.07;97934.75;10326048;28;20044;-55
2023/08/22 02:40:34;;;;;;;18.80;16.80;;;;;;;19.94;78.42;97945.19;10326268;28;20120;-55
2023/08/22 02:45:33;;;;;;;24.83;18.42;;;;;;;19.84;78.24;97940.25;10326631;28;20144;-55
2023/08/22 02:50:32;;;;;;;18.65;16.67;;;;;;;19.70;78.63;97921.44;10325053;28;20036;-55
2023/08/22 02:55:33;;;;;;;21.95;17.13;;;;;;;19.84;79.09;97945.53;10325462;28;20396;-55
2023/08/22 03:00:34;;;;;;;21.73;17.75;;;;;;;19.81;79.47;97950.91;10326419;28;20131;-55
2023/08/22 03:05:33;;;;;;;23.17;18.27;;;;;;;19.82;79.89;97952.59;10326061;28;20121;-55
2023/08/22 03:10:32;;;;;;;35.90;19.70;;;;;;;19.73;80.21;97916.06;10326108;28;20158;-55
2023/08/22 03:15:31;;;;;;;22.85;16.77;;;;;;;19.76;79.99;97937.00;10326014;28;20144;-55
2023/08/22 03:20:31;;;;;;;23.63;17.55;;;;;;;19.57;79.96;97920.16;10325881;28;20136;-55
2023/08/22 03:25:30;;;;;;;24.42;18.10;;;;;;;19.73;80.39;97963.47;10325578;28;20116;-55
2023/08/22 03:30:28;;;;;;;21.58;16.55;;;;;;;19.71;80.14;97962.66;10325385;28;20052;-55
2023/08/22 03:35:27;;;;;;;26.67;17.73;;;;;;;19.56;79.80;97945.63;10325412;28;20024;-55
2023/08/22 03:40:26;;;;;;;25.58;17.00;;;;;;;19.73;79.96;97974.00;10324920;28;20029;-55
2023/08/22 03:45:25;;;;;;;24.40;16.88;;;;;;;19.75;79.93;97976.59;10328322;28;20049;-55
2023/08/22 03:50:24;;;;;;;22.13;17.55;;;;;;;19.72;80.37;97974.91;10332919;28;20491;-55
2023/08/22 03:55:23;;;;;;;20.55;17.27;;;;;;;19.77;80.49;97980.03;10331025;28;20029;-55
2023/08/22 04:00:22;;;;;;;24.27;17.63;;;;;;;19.70;80.81;97971.47;10332011;28;20044;-55
2023/08/22 04:05:22;;;;;;;20.60;17.27;;;;;;;19.49;81.94;97970.41;10330474;28;20456;-55
2023/08/22 04:10:21;;;;;;;21.63;17.55;;;;;;;19.10;82.08;97938.34;10331395;28;20635;-55
2023/08/22 04:15:20;;;;;;;21.13;17.08;;;;;;;19.29;82.82;97989.47;10332080;28;20087;-55
2023/08/22 04:20:19;;;;;;;23.83;17.75;;;;;;;19.32;83.52;98001.66;10329952;28;20060;-55
2023/08/22 04:25:18;;;;;;;23.85;18.20;;;;;;;19.40;83.20;98002.28;10330008;28;20116;-55
2023/08/22 04:30:17;;;;;;;21.58;18.10;;;;;;;19.53;83.03;98008.84;10328475;28;20095;-55
2023/08/22 04:35:16;;;;;;;21.50;18.40;;;;;;;19.64;82.51;98009.38;10327795;28;20045;-55
2023/08/22 04:40:15;;;;;;;22.00;18.65;;;;;;;19.88;81.57;98009.47;10368097;28;20060;-55
2023/08/22 04:45:14;;;;;;;23.08;18.70;;;;;;;20.02;81.03;98012.47;10372396;28;20076;-55
2023/08/22 04:50:13;;;;;;;23.50;18.55;;;;;;;19.86;80.27;97977.94;10371236;28;20037;-55
2023/08/22 04:55:12;;;;;;;26.60;17.98;;;;;;;20.04;80.28;98012.44;10369676;28;20488;-55
2023/08/22 05:00:12;;;;;;;26.30;18.42;;;;;;;20.15;80.16;98012.91;10371252;28;20563;-55
2023/08/22 05:05:11;;;;;;;27.02;19.25;;;;;;;20.17;80.13;98010.25;10371815;28;20048;-55
2023/08/22 05:10:10;;;;;;;22.48;18.55;;;;;;;20.32;79.63;98009.66;10369688;28;20094;-55
2023/08/22 05:15:09;;;;;;;31.50;18.95;;;;;;;20.43;79.35;98004.91;10368499;28;20051;-55
2023/08/22 05:20:13;;;;;;;21.13;18.63;;;;;;;20.60;78.93;98009.53;10369701;28;20113;-55
2023/08/22 05:25:12;;;;;;;26.88;20.25;;;;;;;20.74;78.92;98003.75;10369864;28;20481;-55
2023/08/22 05:30:11;;;;;;;29.17;20.70;;;;;;;20.83;78.63;97995.50;10371614;28;20048;-55
2023/08/22 05:35:10;;;;;;;21.92;19.23;;;;;;;20.77;78.12;97964.06;10368144;28;20131;-55
2023/08/22 05:40:09;;;;;;;17.48;14.93;;;;;;;21.29;77.42;97992.88;10368592;28;20063;-55
2023/08/22 05:45:08;;;;;;;21.80;17.40;;;;;;;21.64;75.87;98014.28;10366683;28;20156;-55
2023/08/22 05:50:08;;;;;;;24.45;16.67;;;;;;;21.88;74.52;98015.06;10361460;28;20112;-55
2023/08/22 05:55:07;;;;;;;21.58;17.25;;;;;;;21.99;74.31;98001.41;10363435;28;20116;-55
2023/08/22 06:00:08;;;;;;;24.83;16.88;;;;;;;22.25;72.82;98000.25;10363059;28;20067;-56
2023/08/22 06:05:07;;;;;;;23.63;17.20;;;;;;;22.36;72.83;97998.84;10363458;28;20705;-56
2023/08/22 06:10:06;;;;;;;21.10;16.67;;;;;;;22.60;71.54;98001.34;10362089;28;20064;-55
2023/08/22 06:15:06;;;;;;;21.70;16.42;;;;;;;22.64;69.99;97971.16;10363092;28;20115;-55
2023/08/22 06:20:06;;;;;;;22.48;17.30;;;;;;;22.98;69.91;98001.38;10364012;28;21032;-55
2023/08/22 06:25:06;;;;;;;21.20;15.65;;;;;;;23.20;68.96;97991.44;10364259;28;20116;-55
2023/08/22 06:30:05;;;;;;;18.75;16.00;;;;;;;23.62;68.03;97992.94;10364541;28;20057;-55
2023/08/22 06:35:05;;;;;;;21.10;15.88;;;;;;;23.91;66.38;97993.28;10363395;28;20068;-55
2023/08/22 06:40:05;;;;;;;25.90;17.50;;;;;;;24.20;65.58;97986.50;10365780;28;20487;-55
2023/08/22 06:45:05;;;;;;;20.55;16.45;;;;;;;24.41;63.70;97989.81;10367230;28;20072;-55
2023/08/22 06:50:04;;;;;;;23.95;15.15;;;;;;;24.46;63.11;97984.25;10367291;28;20072;-56
2023/08/22 06:55:04;;;;;;;19.50;15.80;;;;;;;24.69;62.88;97988.31;10365661;28;20112;-55
2023/08/22 07:00:14;;;;;;;16.85;14.30;;;;;;;24.99;62.14;97985.81;10362824;28;20824;-56
2023/08/22 07:05:14;;;;;;;15.57;13.93;;;;;;;24.97;61.08;97957.63;10366479;28;20060;-55
2023/08/22 07:10:14;;;;;;;17.45;13.20;;;;;;;25.36;60.57;97986.34;10366532;28;20485;-55
2023/08/22 07:15:13;;;;;;;18.52;13.65;;;;;;;25.27;58.83;97949.69;10365936;28;20056;-56
2023/08/22 07:20:13;;;;;;;17.45;13.63;;;;;;;25.74;59.31;97984.16;10358171;28;20112;-55
2023/08/22 07:25:12;;;;;;;14.90;13.35;;;;;;;26.10;58.66;97974.06;10361367;28;20127;-56
2023/08/22 07:30:12;;;;;;;16.17;14.38;;;;;;;25.97;57.69;97918.09;10362235;28;20144;-56
2023/08/22 07:35:11;;;;;;;15.35;13.75;;;;;;;26.44;57.00;97975.56;10365728;28;20133;-56
2023/08/22 07:40:11;;;;;;;19.00;13.88;;;;;;;26.64;55.72;97957.47;10365909;28;20098;-56
2023/08/22 07:45:10;;;;;;;15.02;13.20;;;;;;;26.58;54.72;97934.75;10368348;28;20061;-56
2023/08/22 07:50:09;;;;;;;14.98;13.48;;;;;;;26.73;53.81;97925.78;10363888;28;20068;-56
2023/08/22 07:55:09;;;;;;;17.23;13.05;;;;;;;27.26;53.61;97970.38;10362929;28;20562;-56
2023/08/22 08:00:11;;;;;;;16.00;14.23;;;;;;;27.52;52.33;97972.22;10362635;28;20573;-56
2023/08/22 08:05:12;;;;;;;14.55;12.82;;;;;;;27.78;52.27;97956.28;10359108;28;20113;-56
2023/08/22 08:10:11;;;;;;;14.98;13.18;;;;;;;27.87;51.52;97954.78;10362740;28;20486;-56
2023/08/22 08:15:10;;;;;;;17.08;13.40;;;;;;;28.09;50.96;97946.22;10361977;28;20494;-56
2023/08/22 08:20:10;;;;;;;15.75;11.77;;;;;;;28.42;49.95;97948.31;10359768;28;20025;-56
2023/08/22 08:25:09;;;;;;;13.63;12.27;;;;;;;28.54;49.12;97952.78;10364393;28;20104;-56
2023/08/22 08:30:10;;;;;;;12.00;10.88;;;;;;;28.63;49.37;97946.78;10365319;28;20048;-56
2023/08/22 08:35:09;;;;;;;14.15;11.57;;;;;;;28.71;49.24;97948.06;10370647;28;20108;-56
2023/08/22 08:40:08;;;;;;;13.45;10.80;;;;;;;29.02;48.46;97941.38;10372163;28;20721;-56
2023/08/22 08:45:08;;;;;;;12.35;11.00;;;;;;;29.23;48.38;97946.97;10372006;28;20076;-56
2023/08/22 08:50:08;;;;;;;14.15;11.00;;;;;;;29.04;47.89;97913.56;10371869;28;20164;-56
2023/08/22 08:55:08;;;;;;;12.65;11.32;;;;;;;29.59;46.83;97930.00;10366028;28;20549;-56
2023/08/22 09:00:07;;;;;;;15.13;10.93;;;;;;;29.69;45.63;97927.47;10367986;28;20060;-56
2023/08/22 09:05:09;;;;;;;11.45;10.20;;;;;;;30.08;45.87;97917.38;10377364;28;20119;-56
2023/08/22 09:10:09;;;;;;;15.82;10.95;;;;;;;30.46;45.72;97921.53;10375735;28;21001;-56
2023/08/22 09:15:09;;;;;;;11.55;10.35;;;;;;;30.60;44.13;97923.97;10372389;28;20112;-56
2023/08/22 09:20:10;;;;;;;15.68;10.93;;;;;;;30.58;43.11;97923.22;10370393;28;20064;-56
2023/08/22 09:25:10;;;;;;;11.93;9.52;;;;;;;30.53;42.69;97914.72;10372645;28;20072;-56
2023/08/22 09:30:11;;;;;;;12.00;10.13;;;;;;;30.76;42.43;97905.66;10376786;28;20112;-56
2023/08/22 09:35:10;;;;;;;10.73;9.45;;;;;;;31.04;41.64;97908.81;10371305;28;20576;-56
2023/08/22 09:40:10;;;;;;;10.60;9.60;;;;;;;31.17;40.68;97908.63;10361402;28;20557;-56
2023/08/22 09:45:10;;;;;;;11.32;9.23;;;;;;;31.32;40.37;97901.16;10366330;28;20520;-56
2023/08/22 09:50:12;;;;;;;10.65;9.55;;;;;;;31.37;40.02;97898.94;10357115;28;20120;-56
2023/08/22 09:55:12;;;;;;;13.15;9.80;;;;;;;31.57;39.76;97889.25;10367524;28;20059;-56
2023/08/22 10:00:12;;;;;;;14.43;8.93;;;;;;;31.57;40.01;97876.69;10366370;28;20128;-58
2023/08/22 10:05:12;;;;;;;10.40;8.57;;;;;;;31.74;38.85;97874.38;10366262;28;20080;-56
2023/08/22 10:10:11;;;;;;;12.68;9.52;;;;;;;31.86;38.79;97861.75;10367932;28;20117;-56
2023/08/22 10:15:14;;;;;;;11.73;9.25;;;;;;;32.13;37.84;97863.88;10362139;28;21026;-56
2023/08/22 10:20:15;;;;;;;11.43;8.98;;;;;;;32.07;38.09;97859.06;10350812;28;20634;-56
2023/08/22 10:25:14;;;;;;;10.90;8.65;;;;;;;32.09;38.43;97838.28;10361545;28;20563;-56
2023/08/22 10:30:14;;;;;;;12.70;8.75;;;;;;;32.38;37.38;97854.50;10368352;28;20119;-56
2023/08/22 10:35:13;;;;;;;10.15;8.75;;;;;;;32.49;36.25;97854.41;10366217;28;20182;-56
2023/08/22 10:40:27;;;;;;;13.00;8.45;;;;;;;32.61;35.22;97839.88;10369390;28;20438;-56
2023/08/22 10:45:35;;;;;;;10.13;8.27;;;;;;;32.99;35.19;97840.91;10364797;28;20137;-56
2023/08/22 10:50:35;;;;;;;10.45;8.55;;;;;;;33.03;34.65;97803.84;10361378;28;20104;-56
2023/08/22 10:55:37;;;;;;;8.93;7.85;;;;;;;33.42;34.86;97830.75;10361904;28;20124;-56
2023/08/22 11:00:37;;;;;;;9.27;8.38;;;;;;;33.37;34.06;97811.50;10362903;28;20067;-56
2023/08/22 11:05:38;;;;;;;8.95;8.05;;;;;;;33.65;33.73;97826.78;10363757;28;20060;-56
2023/08/22 11:10:39;;;;;;;11.85;8.27;;;;;;;33.82;33.57;97821.63;10365624;28;20129;-56
2023/08/22 11:15:39;;;;;;;11.40;9.05;;;;;;;33.68;33.48;97820.25;10365595;28;20111;-56
2023/08/22 11:20:40;;;;;;;9.75;8.25;;;;;;;33.63;33.07;97823.38;10359980;28;20118;-56
2023/08/22 11:25:40;;;;;;;12.50;8.00;;;;;;;33.30;33.31;97831.88;10342312;28;20032;-56
2023/08/22 11:30:38;;;;;;;14.05;8.02;;;;;;;33.12;33.07;97835.31;10357748;28;20481;-56
2023/08/22 11:35:39;;;;;;;10.57;8.07;;;;;;;33.17;33.22;97808.84;10363449;28;20509;-56
2023/08/22 11:40:42;;;;;;;8.00;7.15;;;;;;;33.19;32.45;97782.66;10363945;28;20141;-56
2023/08/22 11:45:46;;;;;;;13.52;8.50;;;;;;;33.33;32.61;97757.16;10361052;28;20068;-57
2023/08/22 11:50:45;;;;;;;9.77;7.60;;;;;;;33.91;30.30;97815.38;10359994;28;20071;-56
2023/08/22 11:55:47;;;;;;;9.77;8.07;;;;;;;34.34;29.67;97799.59;10361575;28;20117;-56
2023/08/22 12:00:46;;;;;;;10.68;7.53;;;;;;;34.23;30.56;97804.19;10360878;28;20127;-56
2023/08/22 12:05:48;;;;;;;9.75;7.88;;;;;;;33.71;31.05;97794.88;10364471;28;20028;-56
2023/08/22 12:10:52;;;;;;;10.32;7.70;;;;;;;33.42;31.98;97798.47;10365988;28;20083;-56
2023/08/22 12:15:52;;;;;;;9.77;7.07;;;;;;;33.48;30.95;97777.19;10372137;28;20598;-57
2023/08/22 12:20:51;;;;;;;14.25;8.02;;;;;;;33.79;30.60;97795.81;10371391;28;20112;-57
2023/08/22 12:25:50;;;;;;;8.93;7.70;;;;;;;34.13;31.01;97787.22;10369318;28;20025;-56
2023/08/22 12:30:49;;;;;;;10.35;7.35;;;;;;;34.03;30.39;97786.41;10371550;28;20104;-57
2023/08/22 12:35:48;;;;;;;9.52;7.60;;;;;;;34.08;29.63;97787.66;10369867;28;20094;-56
2023/08/22 12:40:47;;;;;;;12.70;7.40;;;;;;;34.14;30.38;97783.53;10368932;28;20056;-56
2023/08/22 12:45:46;;;;;;;10.85;7.70;;;;;;;34.07;29.42;97756.34;10371000;28;20072;-57
2023/08/22 12:50:45;;;;;;;9.65;7.68;;;;;;;34.14;29.06;97761.97;10370156;28;20033;-57
2023/08/22 12:55:44;;;;;;;9.73;7.20;;;;;;;34.27;29.59;97762.47;10370578;28;20060;-57
2023/08/22 13:00:43;;;;;;;9.45;7.40;;;;;;;34.32;28.80;97769.28;10369581;28;20033;-56
2023/08/22 13:05:42;;;;;;;10.27;7.00;;;;;;;34.00;29.00;97674.44;10366944;28;20097;-57
2023/08/22 13:10:41;;;;;;;12.48;7.63;;;;;;;34.75;28.76;97748.84;10365115;28;20116;-56
2023/08/22 13:15:40;;;;;;;11.65;7.97;;;;;;;34.85;29.33;97733.44;10368057;28;20472;-56
2023/08/22 13:20:39;;;;;;;14.55;7.97;;;;;;;35.02;28.09;97746.06;10367998;28;20139;-56
2023/08/22 13:25:39;;;;;;;9.38;7.22;;;;;;;34.16;29.26;97637.94;10368931;28;20663;-57
2023/08/22 13:30:38;;;;;;;9.02;7.43;;;;;;;34.14;28.97;97701.88;10369416;28;20068;-57
2023/08/22 13:35:37;;;;;;;9.88;7.30;;;;;;;34.44;29.35;97741.94;10368857;28;20038;-57
2023/08/22 13:40:36;;;;;;;13.65;8.00;;;;;;;34.28;29.97;97736.38;10368437;28;20037;-56
2023/08/22 13:45:35;;;;;;;9.88;7.65;;;;;;;34.20;29.98;97721.00;10371586;28;20486;-57
2023/08/22 13:50:34;;;;;;;9.90;8.15;;;;;;;34.20;29.79;97712.91;10369646;28;20419;-57
2023/08/22 13:55:33;;;;;;;10.45;8.48;;;;;;;34.38;30.10;97717.44;10366410;28;20029;-56
2023/08/22 14:00:32;;;;;;;11.60;7.82;;;;;;;34.54;28.93;97735.63;10369178;28;20049;-56
2023/08/22 14:05:31;;;;;;;9.52;8.57;;;;;;;34.22;29.78;97726.22;10371189;28;20147;-57
2023/08/22 14:10:30;;;;;;;11.88;9.98;;;;;;;33.91;30.91;97739.13;10374586;28;20025;-56
2023/08/22 14:15:29;;;;;;;13.75;8.05;;;;;;;33.42;30.61;97697.09;10368430;28;20123;-57
2023/08/22 14:20:28;;;;;;;11.70;8.25;;;;;;;33.08;30.79;97737.06;10368248;28;20119;-56
2023/08/22 14:25:27;;;;;;;9.48;8.18;;;;;;;32.87;30.94;97733.69;10365414;28;20036;-57
2023/08/22 14:30:26;;;;;;;11.60;9.02;;;;;;;32.75;31.41;97709.66;10365721;28;20924;-57
2023/08/22 14:35:25;;;;;;;10.95;7.53;;;;;;;33.00;30.71;97721.66;10366185;28;20121;-56
2023/08/22 14:40:24;;;;;;;9.93;8.25;;;;;;;33.26;31.22;97729.13;10364585;28;20021;-57
2023/08/22 14:45:23;;;;;;;14.23;8.57;;;;;;;33.19;31.18;97718.09;10360611;28;20136;-57
2023/08/22 14:50:22;;;;;;;12.40;8.32;;;;;;;33.64;31.04;97733.56;10366379;28;20060;-57
2023/08/22 14:55:21;;;;;;;10.95;7.60;;;;;;;33.09;30.30;97636.63;10365258;28;20128;-56
2023/08/22 15:00:27;;;;;;;12.98;7.97;;;;;;;33.65;30.75;97719.13;10359942;28;20112;-56
2023/08/22 15:05:26;;;;;;;12.52;8.55;;;;;;;33.70;30.59;97726.75;10364988;28;20107;-56
2023/08/22 15:10:25;;;;;;;12.60;8.00;;;;;;;33.82;30.28;97722.88;10365289;28;20106;-57
2023/08/22 15:15:23;;;;;;;8.68;7.78;;;;;;;33.24;30.19;97618.16;10348602;28;20726;-56
2023/08/22 15:20:23;;;;;;;11.55;10.35;;;;;;;33.47;29.66;97683.19;10361448;28;20768;-56
2023/08/22 15:25:22;;;;;;;10.60;8.00;;;;;;;33.33;30.00;97683.69;10357951;28;20523;-57
2023/08/22 15:30:21;;;;;;;10.60;7.90;;;;;;;33.39;29.85;97716.19;10355878;28;20100;-56
2023/08/22 15:35:20;;;;;;;10.32;8.30;;;;;;;33.41;30.24;97708.00;10358514;28;20151;-56
2023/08/22 15:40:19;;;;;;;12.15;7.63;;;;;;;33.43;30.03;97711.38;10366484;28;20031;-57
2023/08/22 15:45:19;;;;;;;10.57;7.82;;;;;;;33.26;30.30;97686.94;10373629;28;20116;-57
2023/08/22 15:50:18;;;;;;;10.55;8.43;;;;;;;33.23;30.46;97708.75;10378400;28;20064;-56
2023/08/22 15:55:17;;;;;;;11.90;9.40;;;;;;;33.17;30.36;97700.44;10372004;28;20021;-56
2023/08/22 16:00:16;;;;;;;11.93;9.60;;;;;;;33.15;30.70;97711.31;10373736;28;20025;-56
2023/08/22 16:05:15;;;;;;;14.35;8.68;;;;;;;33.00;31.23;97707.38;10378636;28;20108;-56
2023/08/22 16:10:14;;;;;;;11.05;8.73;;;;;;;32.99;31.61;97716.41;10378312;28;20353;-56
2023/08/22 16:15:13;;;;;;;13.70;8.48;;;;;;;32.93;32.02;97708.94;10378094;28;20033;-56
2023/08/22 16:20:12;;;;;;;19.95;8.80;;;;;;;32.88;31.98;97720.13;10377982;28;20396;-56
2023/08/22 16:25:11;;;;;;;12.85;8.25;;;;;;;32.83;32.48;97723.22;10376389;28;20111;-56
2023/08/22 16:30:10;;;;;;;14.05;8.98;;;;;;;32.41;32.80;97664.38;10365067;28;20123;-56
2023/08/22 16:35:10;;;;;;;10.90;9.07;;;;;;;32.64;32.87;97733.97;10372356;28;20156;-56
2023/08/22 16:40:09;;;;;;;11.65;8.68;;;;;;;31.74;32.84;97622.19;10376511;28;20116;-56
2023/08/22 16:45:09;;;;;;;11.50;8.23;;;;;;;32.26;33.31;97724.84;10371776;28;20120;-56
2023/08/22 16:50:08;;;;;;;10.98;8.32;;;;;;;31.92;33.27;97695.66;10376898;28;20153;-56
2023/08/22 16:55:08;;;;;;;11.20;9.35;;;;;;;31.74;33.87;97686.56;10357839;28;20156;-56
2023/08/22 17:00:11;;;;;;;17.60;10.30;;;;;;;31.77;35.44;97723.84;10360722;28;20128;-56
2023/08/22 17:05:10;;;;;;;19.95;11.48;;;;;;;31.50;36.73;97727.06;10357248;28;20113;-56
2023/08/22 17:10:09;;;;;;;13.32;10.80;;;;;;;31.15;38.07;97739.03;10361203;28;20120;-56
2023/08/22 17:15:09;;;;;;;12.80;10.38;;;;;;;30.48;37.96;97702.69;10363914;28;20112;-56
2023/08/22 17:20:09;;;;;;;16.27;10.23;;;;;;;30.45;38.78;97756.50;10371397;28;20060;-56
2023/08/22 17:25:08;;;;;;;13.63;10.38;;;;;;;30.00;39.42;97740.50;10369991;28;20053;-56
2023/08/22 17:30:08;;;;;;;11.05;9.65;;;;;;;29.56;39.94;97715.47;10369874;28;20108;-56
2023/08/22 17:35:07;;;;;;;11.20;9.80;;;;;;;29.54;40.50;97768.22;10368088;28;20155;-56
2023/08/22 17:40:07;;;;;;;14.65;9.63;;;;;;;29.26;41.03;97767.69;10369941;28;20071;-56
2023/08/22 17:45:07;;;;;;;12.32;9.30;;;;;;;28.98;41.72;97768.91;10369117;28;20080;-56
2023/08/22 17:50:06;;;;;;;14.45;10.73;;;;;;;28.66;42.14;97759.66;10369392;28;20075;-56
2023/08/22 17:55:06;;;;;;;14.52;9.95;;;;;;;28.51;42.56;97776.81;10368666;28;20067;-57
2023/08/22 18:00:06;;;;;;;13.40;9.98;;;;;;;28.09;43.09;97741.63;10367304;28;20546;-57
2023/08/22 18:05:05;;;;;;;11.73;10.02;;;;;;;27.94;43.57;97756.03;10367146;28;20056;-54
2023/08/22 18:10:05;;;;;;;12.15;9.50;;;;;;;27.88;43.81;97785.81;10367601;28;20069;-57
2023/08/22 18:15:04;;;;;;;14.60;10.00;;;;;;;27.66;43.98;97794.47;10366505;28;20546;-55
2023/08/22 18:20:08;;;;;;;15.38;10.88;;;;;;;27.56;44.20;97810.25;10368618;28;21950;-54
2023/08/22 18:25:07;;;;;;;14.15;10.32;;;;;;;27.39;44.77;97803.41;10366644;28;20115;-56
2023/08/22 18:30:06;;;;;;;16.73;10.70;;;;;;;27.32;44.94;97818.94;10365854;28;20515;-57
2023/08/22 18:35:06;;;;;;;15.02;10.68;;;;;;;26.41;46.18;97699.00;10364156;28;20108;-57
2023/08/22 18:40:07;;;;;;;13.93;11.30;;;;;;;26.78;47.39;97816.34;10366354;28;20180;-57
2023/08/22 18:45:06;;;;;;;16.27;12.07;;;;;;;26.62;48.60;97823.63;10366142;28;20075;-57
2023/08/22 18:50:05;;;;;;;19.02;12.90;;;;;;;26.50;48.71;97825.28;10365619;28;20421;-57
2023/08/22 18:55:05;;;;;;;15.85;12.52;;;;;;;26.00;49.29;97761.03;10367005;28;20112;-57
2023/08/22 19:00:08;;;;;;;18.20;13.50;;;;;;;26.26;49.11;97822.41;10366480;28;20115;-57
2023/08/22 19:05:08;;;;;;;18.42;13.75;;;;;;;26.11;50.07;97824.16;10366609;28;20061;-57
2023/08/22 19:10:07;;;;;;;19.48;12.70;;;;;;;26.05;51.39;97828.09;10366930;28;20107;-56
2023/08/22 19:15:07;;;;;;;15.10;12.70;;;;;;;25.90;51.28;97819.28;10365238;28;20065;-56
2023/08/22 19:20:06;;;;;;;21.13;13.65;;;;;;;25.91;51.07;97828.09;10366054;28;20049;-56
2023/08/22 19:25:06;;;;;;;12.93;9.98;;;;;;;25.78;50.62;97830.63;10364894;28;20053;-56
2023/08/22 19:30:05;;;;;;;12.93;11.13;;;;;;;25.68;50.30;97834.81;10363319;28;20458;-56
2023/08/22 19:35:05;;;;;;;11.60;10.10;;;;;;;25.60;50.47;97845.94;10363387;28;20112;-56
2023/08/22 19:40:04;;;;;;;14.63;11.73;;;;;;;25.18;50.32;97794.41;10364060;28;20063;-56
2023/08/22 19:45:04;;;;;;;16.40;12.20;;;;;;;25.37;50.21;97833.16;10361119;28;20080;-56
2023/08/22 19:50:04;;;;;;;16.95;12.60;;;;;;;25.32;51.28;97834.28;10362542;28;20067;-56
2023/08/22 19:55:04;;;;;;;17.60;11.50;;;;;;;25.15;51.51;97826.44;10363033;28;20057;-57
2023/08/22 20:00:04;;;;;;;14.77;10.90;;;;;;;25.14;51.48;97832.69;10363053;28;20069;-54
2023/08/22 20:05:03;;;;;;;17.65;11.02;;;;;;;24.40;51.36;97730.81;10363995;28;20609;-54
2023/08/22 20:10:04;;;;;;;16.25;11.75;;;;;;;24.83;51.87;97813.22;10362855;28;20536;-54
2023/08/22 20:15:03;;;;;;;23.52;17.50;;;;;;;24.85;53.53;97837.88;10363450;28;20457;-56
2023/08/22 20:20:02;;;;;;;26.23;17.10;;;;;;;24.44;54.65;97781.88;10363332;28;20491;-55
2023/08/22 20:25:01;;;;;;;26.90;17.45;;;;;;;23.98;55.04;97723.44;10362840;28;20818;-55
2023/08/22 20:30:01;;;;;;;18.77;15.25;;;;;;;24.58;55.90;97837.66;10371157;28;20923;-55
2023/08/22 20:35:00;;;;;;;17.08;11.85;;;;;;;24.49;55.36;97836.38;10371773;28;20100;-55
2023/08/22 20:39:58;;;;;;;16.83;14.30;;;;;;;24.36;56.18;97835.34;10372094;28;20028;-55
2023/08/22 20:44:57;;;;;;;19.83;15.82;;;;;;;24.22;57.26;97843.22;10372316;28;20048;-55
2023/08/22 20:49:56;;;;;;;23.52;16.55;;;;;;;24.12;57.91;97836.66;10370683;28;20430;-55
2023/08/22 20:54:55;;;;;;;21.58;15.95;;;;;;;23.99;58.21;97828.53;10372003;28;20033;-55
2023/08/22 20:59:55;;;;;;;21.80;16.35;;;;;;;23.93;58.44;97837.66;10371017;28;20061;-55
2023/08/22 21:04:54;;;;;;;19.63;13.50;;;;;;;23.91;58.21;97847.50;10371578;28;20075;-55
2023/08/22 21:09:52;;;;;;;20.80;14.63;;;;;;;23.79;58.29;97840.19;10370807;28;20114;-55
2023/08/22 21:14:51;;;;;;;19.13;14.05;;;;;;;23.69;59.05;97849.59;10370955;28;20474;-55
2023/08/22 21:19:50;;;;;;;21.52;14.50;;;;;;;23.66;59.72;97860.34;10370489;28;20052;-55
2023/08/22 21:24:49;;;;;;;17.25;13.68;;;;;;;23.55;60.51;97852.94;10369938;28;20104;-55
2023/08/22 21:29:48;;;;;;;18.17;13.93;;;;;;;23.43;60.97;97847.31;10370794;28;20024;-55
2023/08/22 21:34:47;;;;;;;21.65;16.38;;;;;;;23.36;61.63;97853.00;10369808;28;20705;-55
2023/08/22 21:39:47;;;;;;;16.15;14.02;;;;;;;23.08;62.68;97821.78;10369099;28;20024;-55
2023/08/22 21:44:49;;;;;;;19.65;14.05;;;;;;;23.12;62.98;97847.19;10369349;28;20064;-55
2023/08/22 21:49:50;;;;;;;16.00;14.20;;;;;;;23.00;63.86;97851.31;10367768;28;20114;-55
2023/08/22 21:54:48;;;;;;;16.80;14.00;;;;;;;22.93;63.82;97860.47;10369390;28;20928;-55
2023/08/22 21:59:47;;;;;;;14.77;12.45;;;;;;;22.52;63.10;97789.25;10368715;28;20754;-55
2023/08/22 22:04:46;;;;;;;17.25;13.60;;;;;;;22.89;62.85;97858.91;10368902;28;20704;-55
2023/08/22 22:09:45;;;;;;;17.10;13.90;;;;;;;22.67;62.68;97837.88;10367255;28;20043;-55
2023/08/22 22:14:44;;;;;;;16.25;13.55;;;;;;;22.70;63.30;97846.53;10365725;28;20518;-55
2023/08/22 22:19:43;;;;;;;15.55;13.63;;;;;;;22.67;63.09;97854.63;10364791;28;20029;-55
2023/08/22 22:24:42;;;;;;;16.48;13.50;;;;;;;22.64;63.97;97852.13;10366910;28;20098;-55
2023/08/22 22:29:41;;;;;;;16.17;13.88;;;;;;;22.59;65.63;97851.50;10368673;28;20036;-55
2023/08/22 22:34:40;;;;;;;19.40;15.52;;;;;;;22.46;67.07;97850.34;10367802;28;20032;-55
2023/08/22 22:39:39;;;;;;;19.80;15.23;;;;;;;22.33;67.84;97858.88;10367165;28;20898;-55
2023/08/22 22:44:38;;;;;;;19.48;15.38;;;;;;;22.18;68.29;97844.59;10365688;28;20462;-55